createdAt,value
2022-08-04T00:00:03.183Z,14.67
2022-08-04T00:01:03.246Z,14.73
2022-08-04T00:02:03.352Z,14.64
2022-08-04T00:03:03.466Z,14.63
2022-08-04T00:04:03.382Z,14.57
2022-08-04T00:05:03.345Z,14.66
2022-08-04T00:06:03.347Z,14.71
2022-08-04T00:07:03.458Z,14.72
2022-08-04T00:08:03.466Z,14.72
2022-08-04T00:09:03.175Z,14.76
2022-08-04T00:10:03.150Z,14.63
2022-08-04T00:11:03.190Z,14.72
2022-08-04T00:12:03.152Z,14.6
2022-08-04T00:13:03.185Z,14.67
2022-08-04T00:14:03.840Z,14.72
2022-08-04T00:15:03.161Z,14.69
2022-08-04T00:16:03.166Z,14.82
2022-08-04T00:17:03.167Z,14.87
2022-08-04T00:18:03.145Z,14.82
2022-08-04T00:19:03.232Z,14.86
2022-08-04T00:20:03.156Z,14.77
2022-08-04T00:21:03.181Z,14.85
2022-08-04T00:22:03.142Z,14.74
2022-08-04T00:23:03.171Z,14.69
2022-08-04T00:24:11.773Z,14.71
2022-08-04T00:25:03.156Z,14.72
2022-08-04T00:26:03.147Z,14.67
2022-08-04T00:27:03.163Z,14.74
2022-08-04T00:28:03.206Z,14.72
2022-08-04T00:29:03.152Z,14.7
2022-08-04T00:30:03.173Z,14.77
2022-08-04T00:31:03.152Z,14.73
2022-08-04T00:32:03.211Z,14.81
2022-08-04T00:33:03.246Z,14.96
2022-08-04T00:34:03.174Z,14.92
2022-08-04T00:35:03.216Z,14.91
2022-08-04T00:36:03.167Z,14.91
2022-08-04T00:37:03.164Z,15.02
2022-08-04T00:38:03.166Z,14.96
2022-08-04T00:39:03.265Z,15.05
2022-08-04T00:40:03.182Z,15.07
2022-08-04T00:41:03.165Z,15.07
2022-08-04T00:42:03.183Z,15.09
2022-08-04T00:43:03.187Z,15.2
2022-08-04T00:44:03.189Z,15.16
2022-08-04T00:45:03.171Z,15.16
2022-08-04T00:46:15.867Z,15.28
2022-08-04T00:47:03.177Z,15.44
2022-08-04T00:48:03.173Z,15.37
2022-08-04T00:49:03.197Z,15.46
2022-08-04T00:50:03.186Z,15.44
2022-08-04T00:51:03.166Z,15.39
2022-08-04T00:52:31.830Z,15.54
2022-08-04T00:53:03.158Z,15.37
2022-08-04T00:54:03.210Z,15.56
2022-08-04T00:55:06.849Z,15.54
2022-08-04T00:56:03.201Z,15.41
2022-08-04T00:57:03.163Z,15.59
2022-08-04T00:58:03.165Z,15.54
2022-08-04T00:59:03.157Z,15.58
2022-08-04T01:00:03.157Z,15.6
2022-08-04T01:01:03.407Z,15.56
2022-08-04T01:02:03.168Z,15.64
2022-08-04T01:03:03.199Z,15.33
2022-08-04T01:04:03.157Z,15.54
2022-08-04T01:05:03.169Z,15.35
2022-08-04T01:06:03.224Z,15.35
2022-08-04T01:07:03.213Z,15.52
2022-08-04T01:08:03.177Z,15.46
2022-08-04T01:09:03.227Z,15.61
2022-08-04T01:10:03.206Z,15.46
2022-08-04T01:11:03.195Z,15.56
2022-08-04T01:12:03.162Z,15.31
2022-08-04T01:13:03.215Z,15.67
2022-08-04T01:14:03.186Z,15.54
2022-08-04T01:15:03.272Z,15.52
2022-08-04T01:16:03.444Z,15.65
2022-08-04T01:17:03.370Z,15.78
2022-08-04T01:18:03.178Z,15.75
2022-08-04T01:19:03.190Z,15.84
2022-08-04T01:20:03.181Z,15.79
2022-08-04T01:21:03.179Z,15.94
2022-08-04T01:22:03.258Z,16.02
2022-08-04T01:23:03.179Z,15.87
2022-08-04T01:24:03.229Z,15.73
2022-08-04T01:25:04.522Z,15.88
2022-08-04T01:26:03.194Z,16
2022-08-04T01:27:03.906Z,15.85
2022-08-04T01:28:03.214Z,15.94
2022-08-04T01:29:03.179Z,15.84
2022-08-04T01:30:03.173Z,15.95
2022-08-04T01:31:03.232Z,15.88
2022-08-04T01:32:03.179Z,15.93
2022-08-04T01:33:03.178Z,16.05
2022-08-04T01:34:04.798Z,15.84
2022-08-04T01:35:03.187Z,15.84
2022-08-04T01:36:03.232Z,15.84
2022-08-04T01:37:03.178Z,15.8
2022-08-04T01:38:03.763Z,15.91
2022-08-04T01:39:03.221Z,15.72
2022-08-04T01:40:03.194Z,15.69
2022-08-04T01:41:03.196Z,15.86
2022-08-04T01:42:03.194Z,15.91
2022-08-04T01:43:03.276Z,15.67
2022-08-04T01:44:03.193Z,15.8
2022-08-04T01:45:03.219Z,15.71
2022-08-04T01:46:03.184Z,15.86
2022-08-04T01:47:03.189Z,15.83
2022-08-04T01:48:03.179Z,16.08
2022-08-04T01:49:03.168Z,16.17
2022-08-04T01:50:03.195Z,16.4
2022-08-04T01:51:03.188Z,16.5
2022-08-04T01:52:03.263Z,16.21
2022-08-04T01:53:03.197Z,16.22
2022-08-04T01:54:03.194Z,16.34
2022-08-04T01:55:03.194Z,16.26
2022-08-04T01:56:03.192Z,15.96
2022-08-04T01:57:38.506Z,16.23
2022-08-04T01:58:03.243Z,16.28
2022-08-04T01:59:03.219Z,16.43
2022-08-04T02:00:03.194Z,16.41
2022-08-04T02:01:07.986Z,16.24
2022-08-04T02:02:03.319Z,16.31
2022-08-04T02:03:03.319Z,16.41
2022-08-04T02:04:18.687Z,16.22
2022-08-04T02:05:03.195Z,16.54
2022-08-04T02:06:04.370Z,16.57
2022-08-04T02:07:03.198Z,16.59
2022-08-04T02:08:03.196Z,16.64
2022-08-04T02:09:03.197Z,16.58
2022-08-04T02:10:03.191Z,16.52
2022-08-04T02:11:03.186Z,16.58
2022-08-04T02:12:03.175Z,16.58
2022-08-04T02:13:03.224Z,16.64
2022-08-04T02:14:03.188Z,16.87
2022-08-04T02:15:03.198Z,16.91
2022-08-04T02:16:03.206Z,16.53
2022-08-04T02:17:03.221Z,16.69
2022-08-04T02:18:03.194Z,16.87
2022-08-04T02:19:03.206Z,16.97
2022-08-04T02:20:03.230Z,16.97
2022-08-04T02:21:03.204Z,16.93
2022-08-04T02:22:03.196Z,16.97
2022-08-04T02:23:03.195Z,16.85
2022-08-04T02:24:03.189Z,16.76
2022-08-04T02:25:03.204Z,16.79
2022-08-04T02:26:03.195Z,16.41
2022-08-04T02:27:03.228Z,16.21
2022-08-04T02:28:03.224Z,16.38
2022-08-04T02:29:03.224Z,16.3
2022-08-04T02:30:03.202Z,16.11
2022-08-04T02:31:03.217Z,16.05
2022-08-04T02:32:03.279Z,16.18
2022-08-04T02:33:03.202Z,16.21
2022-08-04T02:34:03.234Z,16.3
2022-08-04T02:35:03.198Z,16.02
2022-08-04T02:36:03.205Z,15.95
2022-08-04T02:37:03.205Z,15.98
2022-08-04T02:38:03.202Z,15.99
2022-08-04T02:39:03.236Z,15.89
2022-08-04T02:40:03.202Z,15.93
2022-08-04T02:41:03.237Z,15.96
2022-08-04T02:42:03.192Z,16.01
2022-08-04T02:43:03.206Z,15.94
2022-08-04T02:44:03.221Z,15.88
2022-08-04T02:45:03.206Z,15.76
2022-08-04T02:46:03.240Z,15.71
2022-08-04T02:47:03.223Z,15.75
2022-08-04T02:48:29.107Z,15.88
2022-08-04T02:49:03.235Z,15.63
2022-08-04T02:50:03.209Z,15.76
2022-08-04T02:51:03.221Z,15.78
2022-08-04T02:52:03.256Z,15.98
2022-08-04T02:53:03.263Z,15.82
2022-08-04T02:54:03.270Z,15.99
2022-08-04T02:55:03.266Z,16.17
2022-08-04T02:56:03.210Z,16.07
2022-08-04T02:57:08.231Z,16.15
2022-08-04T02:58:03.201Z,16.34
2022-08-04T02:59:03.209Z,16.37
2022-08-04T03:00:03.295Z,16.43
2022-08-04T03:01:03.252Z,16.55
2022-08-04T03:02:03.248Z,16.62
2022-08-04T03:03:03.210Z,16.74
2022-08-04T03:04:03.208Z,16.82
2022-08-04T03:05:03.203Z,16.88
2022-08-04T03:06:06.473Z,16.84
2022-08-04T03:07:03.208Z,16.99
2022-08-04T03:08:03.367Z,17.05
2022-08-04T03:09:03.387Z,16.86
2022-08-04T03:10:03.429Z,16.68
2022-08-04T03:11:03.278Z,16.46
2022-08-04T03:12:03.211Z,16.52
2022-08-04T03:13:03.196Z,16.51
2022-08-04T03:14:05.194Z,16.57
2022-08-04T03:15:03.220Z,16.45
2022-08-04T03:16:03.236Z,16.36
2022-08-04T03:17:03.219Z,16.52
2022-08-04T03:18:03.206Z,16.46
2022-08-04T03:19:03.201Z,16.54
2022-08-04T03:20:03.211Z,16.59
2022-08-04T03:21:03.285Z,16.53
2022-08-04T03:22:03.201Z,16.63
2022-08-04T03:23:17.846Z,16.49
2022-08-04T03:24:03.242Z,16.43
2022-08-04T03:25:03.216Z,16.29
2022-08-04T03:26:03.209Z,16.57
2022-08-04T03:27:03.210Z,16.57
2022-08-04T03:28:03.213Z,16.41
2022-08-04T03:29:03.236Z,16.38
2022-08-04T03:30:03.238Z,16.56
2022-08-04T03:31:03.218Z,16.48
2022-08-04T03:32:03.236Z,16.64
2022-08-04T03:33:03.212Z,16.7
2022-08-04T03:34:03.233Z,16.5
2022-08-04T03:35:03.277Z,16.55
2022-08-04T03:36:03.219Z,16.51
2022-08-04T03:37:03.250Z,16.43
2022-08-04T03:38:03.219Z,16.34
2022-08-04T03:39:03.267Z,16.3
2022-08-04T03:40:03.231Z,16.35
2022-08-04T03:41:03.224Z,16.29
2022-08-04T03:42:04.905Z,16.13
2022-08-04T03:43:03.221Z,16.21
2022-08-04T03:44:03.255Z,16.11
2022-08-04T03:45:03.352Z,16.27
2022-08-04T03:46:03.346Z,16.03
2022-08-04T03:47:03.216Z,16.06
2022-08-04T03:48:03.218Z,15.97
2022-08-04T03:49:03.225Z,15.93
2022-08-04T03:50:04.401Z,16.01
2022-08-04T03:51:03.263Z,16.02
2022-08-04T03:52:03.219Z,15.97
2022-08-04T03:53:03.257Z,15.81
2022-08-04T03:54:03.224Z,15.75
2022-08-04T03:55:03.228Z,15.87
2022-08-04T03:56:03.252Z,15.69
2022-08-04T03:57:03.225Z,15.8
2022-08-04T03:58:03.253Z,15.72
2022-08-04T03:59:03.234Z,15.58
2022-08-04T04:00:03.238Z,15.52
2022-08-04T04:01:03.271Z,15.46
2022-08-04T04:02:06.697Z,15.48
2022-08-04T04:03:03.296Z,15.42
2022-08-04T04:04:03.258Z,15.5
2022-08-04T04:05:03.274Z,15.58
2022-08-04T04:06:03.266Z,15.56
2022-08-04T04:07:04.182Z,15.66
2022-08-04T04:08:03.978Z,15.29
2022-08-04T04:09:03.223Z,15.44
2022-08-04T04:10:07.002Z,15.42
2022-08-04T04:11:03.227Z,15.26
2022-08-04T04:12:03.247Z,15.14
2022-08-04T04:13:03.234Z,15.06
2022-08-04T04:14:03.252Z,15
2022-08-04T04:15:03.254Z,14.94
2022-08-04T04:16:03.255Z,14.9
2022-08-04T04:17:03.284Z,14.92
2022-08-04T04:18:03.230Z,14.71
2022-08-04T04:19:03.245Z,14.69
2022-08-04T04:20:03.251Z,14.7
2022-08-04T04:21:03.232Z,14.82
2022-08-04T04:22:03.245Z,14.52
2022-08-04T04:23:03.220Z,14.56
2022-08-04T04:24:03.331Z,14.54
2022-08-04T04:25:03.381Z,14.37
2022-08-04T04:26:03.281Z,14.52
2022-08-04T04:27:03.261Z,14.44
2022-08-04T04:28:43.727Z,14.34
2022-08-04T04:29:03.698Z,14.38
2022-08-04T04:30:03.232Z,14.36
2022-08-04T04:31:03.306Z,14.27
2022-08-04T04:32:03.278Z,14.23
2022-08-04T04:33:03.284Z,14.21
2022-08-04T04:34:03.244Z,14.17
2022-08-04T04:35:03.231Z,14.11
2022-08-04T04:36:03.237Z,14.15
2022-08-04T04:37:03.224Z,14.17
2022-08-04T04:38:03.239Z,14.09
2022-08-04T04:39:03.338Z,14.15
2022-08-04T04:40:03.954Z,14.11
2022-08-04T04:41:03.228Z,14.07
2022-08-04T04:42:03.238Z,14.15
2022-08-04T04:43:03.233Z,13.97
2022-08-04T04:44:03.567Z,14.13
2022-08-04T04:45:03.300Z,14.02
2022-08-04T04:46:03.226Z,14.11
2022-08-04T04:47:03.282Z,14.04
2022-08-04T04:48:08.536Z,14.02
2022-08-04T04:49:03.242Z,14.06
2022-08-04T04:50:03.243Z,13.94
2022-08-04T04:51:03.241Z,13.96
2022-08-04T04:52:03.244Z,13.92
2022-08-04T04:53:03.239Z,14
2022-08-04T04:54:03.267Z,13.98
2022-08-04T04:55:03.253Z,13.98
2022-08-04T04:56:03.246Z,13.91
2022-08-04T04:57:03.292Z,13.89
2022-08-04T04:58:03.238Z,13.83
2022-08-04T04:59:03.250Z,13.79
2022-08-04T05:00:03.258Z,13.89
2022-08-04T05:01:03.277Z,14.02
2022-08-04T05:02:03.257Z,13.79
2022-08-04T05:03:08.700Z,13.97
2022-08-04T05:04:03.238Z,13.91
2022-08-04T05:05:03.244Z,13.96
2022-08-04T05:06:03.260Z,14.01
2022-08-04T05:07:03.243Z,13.97
2022-08-04T05:08:40.940Z,13.97
2022-08-04T05:09:03.244Z,13.85
2022-08-04T05:10:03.267Z,13.99
2022-08-04T05:11:03.240Z,14.07
2022-08-04T05:12:04.367Z,13.89
2022-08-04T05:14:38.327Z,13.88
2022-08-04T05:14:38.856Z,13.8
2022-08-04T05:15:03.284Z,14.08
2022-08-04T05:16:03.256Z,14.06
2022-08-04T05:17:03.240Z,13.88
2022-08-04T05:18:03.303Z,13.93
2022-08-04T05:19:03.233Z,14.07
2022-08-04T05:20:04.325Z,14.03
2022-08-04T05:21:03.278Z,14.07
2022-08-04T05:22:03.273Z,14.16
2022-08-04T05:23:03.250Z,14.03
2022-08-04T05:24:03.325Z,14.11
2022-08-04T05:25:03.254Z,14.3
2022-08-04T05:26:03.252Z,14.26
2022-08-04T05:27:03.252Z,14.29
2022-08-04T05:28:03.271Z,14.56
2022-08-04T05:29:03.301Z,14.54
2022-08-04T05:30:03.421Z,14.6
2022-08-04T05:31:03.249Z,14.81
2022-08-04T05:32:03.261Z,14.66
2022-08-04T05:33:03.240Z,14.4
2022-08-04T05:34:03.320Z,14.51
2022-08-04T05:35:03.328Z,14.72
2022-08-04T05:36:20.673Z,14.6
2022-08-04T05:37:03.271Z,14.66
2022-08-04T05:38:03.265Z,14.66
2022-08-04T05:39:03.368Z,14.59
2022-08-04T05:40:03.266Z,14.26
2022-08-04T05:41:03.254Z,14.39
2022-08-04T05:42:04.632Z,14.23
2022-08-04T05:43:03.290Z,14.03
2022-08-04T05:44:03.252Z,14.04
2022-08-04T05:45:03.247Z,14.09
2022-08-04T05:46:03.257Z,13.65
2022-08-04T05:47:03.244Z,13.87
2022-08-04T05:48:03.344Z,13.99
2022-08-04T05:49:03.264Z,13.84
2022-08-04T05:50:03.385Z,13.56
2022-08-04T05:51:03.253Z,13.74
2022-08-04T05:52:04.327Z,13.51
2022-08-04T05:53:03.268Z,13.61
2022-08-04T05:54:03.266Z,13.48
2022-08-04T05:55:03.242Z,13.32
2022-08-04T05:56:03.251Z,13.26
2022-08-04T05:57:03.286Z,13.1
2022-08-04T05:58:03.265Z,13.05
2022-08-04T05:59:03.258Z,13.03
2022-08-04T06:00:19.494Z,13.03
2022-08-04T06:01:03.517Z,13.01
2022-08-04T06:02:03.350Z,13.08
2022-08-04T06:03:03.250Z,13.25
2022-08-04T06:04:05.739Z,13.13
2022-08-04T06:05:03.271Z,13.24
2022-08-04T06:06:03.262Z,13.22
2022-08-04T06:07:03.263Z,13.25
2022-08-04T06:08:04.429Z,13.25
2022-08-04T06:09:03.316Z,13.23
2022-08-04T06:10:03.265Z,13.3
2022-08-04T06:11:03.297Z,13.35
2022-08-04T06:12:04.387Z,13.63
2022-08-04T06:13:03.281Z,13.65
2022-08-04T06:14:03.278Z,13.65
2022-08-04T06:15:03.257Z,13.65
2022-08-04T06:16:03.278Z,13.87
2022-08-04T06:17:03.458Z,13.78
2022-08-04T06:19:56.346Z,13.83
2022-08-04T06:19:59.642Z,13.83
2022-08-04T06:20:19.019Z,13.98
2022-08-04T06:21:03.694Z,13.86
2022-08-04T06:22:03.253Z,13.9
2022-08-04T06:23:03.375Z,13.82
2022-08-04T06:24:04.677Z,13.75
2022-08-04T06:25:03.344Z,13.62
2022-08-04T06:26:03.412Z,13.55
2022-08-04T06:27:03.353Z,13.5
2022-08-04T06:28:03.269Z,13.65
2022-08-04T06:29:03.294Z,13.67
2022-08-04T06:30:03.300Z,13.77
2022-08-04T06:32:30.888Z,13.87
2022-08-04T06:32:31.491Z,13.74
2022-08-04T06:33:05.108Z,13.8
2022-08-04T06:34:03.419Z,13.85
2022-08-04T06:35:03.415Z,14.24
2022-08-04T06:36:03.254Z,14.16
2022-08-04T06:37:03.268Z,14.17
2022-08-04T06:38:03.326Z,14.22
2022-08-04T06:39:03.356Z,14.2
2022-08-04T06:40:29.273Z,13.98
2022-08-04T06:41:03.284Z,13.95
2022-08-04T06:42:22.455Z,13.95
2022-08-04T06:43:03.400Z,14.18
2022-08-04T06:44:03.346Z,14.19
2022-08-04T06:45:03.280Z,14.24
2022-08-04T06:46:03.293Z,14.19
2022-08-04T06:47:03.277Z,14.32
2022-08-04T06:48:03.287Z,14.24
2022-08-04T06:49:03.277Z,14.06
2022-08-04T06:51:25.744Z,14.07
2022-08-04T06:51:31.899Z,13.99
2022-08-04T06:52:03.287Z,13.99
2022-08-04T06:53:03.306Z,13.89
2022-08-04T06:54:03.280Z,13.91
2022-08-04T06:55:03.273Z,13.96
2022-08-04T06:56:03.276Z,13.8
2022-08-04T06:57:03.280Z,13.94
2022-08-04T06:58:03.841Z,13.93
2022-08-04T06:59:03.297Z,13.77
2022-08-04T07:00:03.309Z,13.85
2022-08-04T07:01:03.343Z,13.79
2022-08-04T07:02:03.384Z,13.63
2022-08-04T07:03:03.279Z,13.71
2022-08-04T07:04:03.276Z,13.68
2022-08-04T07:05:07.509Z,13.74
2022-08-04T07:06:06.183Z,13.79
2022-08-04T07:07:03.334Z,13.65
2022-08-04T07:08:03.289Z,13.7
2022-08-04T07:09:03.293Z,13.63
2022-08-04T07:10:03.289Z,13.67
2022-08-04T07:11:03.280Z,13.69
2022-08-04T07:12:03.275Z,13.83
2022-08-04T07:13:03.276Z,13.78
2022-08-04T07:14:03.307Z,13.85
2022-08-04T07:15:03.304Z,13.84
2022-08-04T07:16:03.286Z,13.8
2022-08-04T07:17:03.285Z,13.65
2022-08-04T07:18:03.295Z,13.61
2022-08-04T07:19:10.028Z,13.76
2022-08-04T07:20:03.277Z,13.7
2022-08-04T07:21:03.309Z,13.81
2022-08-04T07:22:18.805Z,13.66
2022-08-04T07:23:03.302Z,13.94
2022-08-04T07:24:03.297Z,13.9
2022-08-04T07:25:03.292Z,13.99
2022-08-04T07:26:12.997Z,13.92
2022-08-04T07:27:03.293Z,14.01
2022-08-04T07:28:03.352Z,13.75
2022-08-04T07:29:03.281Z,13.86
2022-08-04T07:30:03.294Z,13.92
2022-08-04T07:31:03.295Z,13.86
2022-08-04T07:32:03.309Z,13.88
2022-08-04T07:33:03.285Z,13.93
2022-08-04T07:34:21.083Z,13.98
2022-08-04T07:35:03.326Z,14.05
2022-08-04T07:36:05.071Z,14.05
2022-08-04T07:37:03.318Z,14.08
2022-08-04T07:38:03.300Z,14.04
2022-08-04T07:39:03.387Z,14.17
2022-08-04T07:40:03.382Z,14.08
2022-08-04T07:41:03.543Z,14.07
2022-08-04T07:42:03.332Z,14.2
2022-08-04T07:43:03.304Z,14.18
2022-08-04T07:44:03.343Z,14.18
2022-08-04T07:45:03.482Z,14.35
2022-08-04T07:46:03.326Z,14.33
2022-08-04T07:47:03.367Z,14.38
2022-08-04T07:48:04.263Z,14.35
2022-08-04T07:49:03.376Z,14.41
2022-08-04T07:50:03.294Z,14.56
2022-08-04T07:51:03.332Z,14.43
2022-08-04T07:52:03.290Z,14.27
2022-08-04T07:53:54.421Z,14.38
2022-08-04T07:54:03.296Z,14.37
2022-08-04T07:55:03.301Z,14.37
2022-08-04T07:56:03.342Z,14.23
2022-08-04T07:57:03.301Z,14.44
2022-08-04T07:58:03.291Z,14.43
2022-08-04T07:59:03.292Z,14.52
2022-08-04T08:00:03.298Z,14.43
2022-08-04T08:01:03.279Z,14.47
2022-08-04T08:02:03.290Z,14.38
2022-08-04T08:03:03.359Z,14.45
2022-08-04T08:04:03.340Z,14.4
2022-08-04T08:05:03.299Z,14.25
2022-08-04T08:06:17.516Z,14.41
2022-08-04T08:07:03.297Z,14.44
2022-08-04T08:08:03.381Z,14.71
2022-08-04T08:09:13.683Z,14.27
2022-08-04T08:10:03.334Z,14.35
2022-08-04T08:11:03.306Z,14.51
2022-08-04T08:12:36.927Z,14.44
2022-08-04T08:13:03.294Z,14.32
2022-08-04T08:14:03.300Z,14.24
2022-08-04T08:15:03.350Z,14.06
2022-08-04T08:16:03.521Z,14.05
2022-08-04T08:17:03.418Z,14.18
2022-08-04T08:18:03.298Z,14.3
2022-08-04T08:19:03.297Z,14.37
2022-08-04T08:20:03.312Z,14.16
2022-08-04T08:21:03.322Z,13.91
2022-08-04T08:22:03.362Z,14.21
2022-08-04T08:23:03.389Z,14.05
2022-08-04T08:24:03.346Z,14.09
2022-08-04T08:25:03.318Z,14.13
2022-08-04T08:26:03.307Z,13.88
2022-08-04T08:27:03.310Z,14.05
2022-08-04T08:28:03.295Z,13.96
2022-08-04T08:29:03.379Z,13.83
2022-08-04T08:30:03.339Z,13.82
2022-08-04T08:31:03.336Z,13.92
2022-08-04T08:32:08.189Z,13.99
2022-08-04T08:33:05.492Z,13.96
2022-08-04T08:34:03.299Z,13.84
2022-08-04T08:35:03.326Z,13.78
2022-08-04T08:36:03.303Z,13.88
2022-08-04T08:37:03.308Z,14.08
2022-08-04T08:38:03.334Z,14.06
2022-08-04T08:39:03.352Z,14
2022-08-04T08:40:03.340Z,14
2022-08-04T08:41:03.345Z,14.12
2022-08-04T08:42:03.432Z,14.05
2022-08-04T08:43:03.692Z,14.13
2022-08-04T08:44:05.389Z,14.06
2022-08-04T08:45:03.373Z,14
2022-08-04T08:46:03.313Z,14.1
2022-08-04T08:47:03.323Z,14.04
2022-08-04T08:48:06.210Z,13.87
2022-08-04T08:49:03.318Z,13.88
2022-08-04T08:50:04.714Z,14.06
2022-08-04T08:51:03.318Z,13.99
2022-08-04T08:52:03.395Z,14.1
2022-08-04T08:53:03.345Z,14.13
2022-08-04T08:54:03.321Z,14.14
2022-08-04T08:55:03.336Z,14.08
2022-08-04T08:56:03.313Z,13.97
2022-08-04T08:57:03.311Z,14.22
2022-08-04T08:58:03.311Z,14.05
2022-08-04T08:59:03.350Z,13.55
2022-08-04T09:00:03.353Z,14.15
2022-08-04T09:01:03.353Z,13.8
2022-08-04T09:02:03.485Z,14.04
2022-08-04T09:03:04.382Z,13.94
2022-08-04T09:04:03.336Z,13.76
2022-08-04T09:05:03.371Z,14.01
2022-08-04T09:06:03.346Z,13.9
2022-08-04T09:07:03.302Z,14.15
2022-08-04T09:08:03.323Z,14.27
2022-08-04T09:09:03.306Z,14.38
2022-08-04T09:10:03.348Z,14.24
2022-08-04T09:11:03.388Z,14.05
2022-08-04T09:12:03.313Z,13.91
2022-08-04T09:13:03.357Z,14.13
2022-08-04T09:14:03.310Z,14.21
2022-08-04T09:15:03.365Z,14.24
2022-08-04T09:16:03.323Z,14.32
2022-08-04T09:17:03.316Z,13.94
2022-08-04T09:18:03.318Z,13.26
2022-08-04T09:19:03.323Z,13.31
2022-08-04T09:20:03.375Z,13.76
2022-08-04T09:21:03.324Z,14.09
2022-08-04T09:22:03.310Z,13.98
2022-08-04T09:23:03.328Z,13.82
2022-08-04T09:24:03.330Z,14.01
2022-08-04T09:25:03.414Z,12.94
2022-08-04T09:26:03.331Z,13
2022-08-04T09:27:03.399Z,13.12
2022-08-04T09:28:06.114Z,13.71
2022-08-04T09:29:03.329Z,13.76
2022-08-04T09:30:03.395Z,12.95
2022-08-04T09:31:03.342Z,13.1
2022-08-04T09:32:07.090Z,13.2
2022-08-04T09:33:03.330Z,13.46
2022-08-04T09:34:03.369Z,13.07
2022-08-04T09:35:08.420Z,13.48
2022-08-04T09:36:03.334Z,12.85
2022-08-04T09:37:03.336Z,12.89
2022-08-04T09:38:03.330Z,12.84
2022-08-04T09:39:03.401Z,12.59
2022-08-04T09:40:03.354Z,12.5
2022-08-04T09:41:03.363Z,12.19
2022-08-04T09:42:03.429Z,12.38
2022-08-04T09:43:03.331Z,12.55
2022-08-04T09:44:48.927Z,12.82
2022-08-04T09:45:06.253Z,12.96
2022-08-04T09:46:03.339Z,13.32
2022-08-04T09:47:03.332Z,13
2022-08-04T09:48:03.383Z,13.04
2022-08-04T09:49:03.330Z,13.11
2022-08-04T09:50:03.352Z,13.18
2022-08-04T09:51:03.360Z,13.28
2022-08-04T09:52:03.342Z,13.49
2022-08-04T09:53:03.389Z,13.67
2022-08-04T09:54:03.346Z,13.53
2022-08-04T09:55:03.397Z,13.39
2022-08-04T09:56:03.818Z,13.68
2022-08-04T09:57:03.346Z,13.65
2022-08-04T09:58:03.342Z,13.67
2022-08-04T09:59:03.343Z,13.78
2022-08-04T10:00:03.507Z,13.44
2022-08-04T10:01:03.337Z,13.28
2022-08-04T10:02:03.379Z,13.49
2022-08-04T10:03:03.510Z,13.31
2022-08-04T10:04:03.343Z,12.54
2022-08-04T10:05:03.431Z,12.63
2022-08-04T10:06:03.341Z,12.65
2022-08-04T10:07:03.409Z,12.3
2022-08-04T10:08:16.653Z,12.24
2022-08-04T10:09:03.368Z,12.47
2022-08-04T10:10:03.375Z,12.65
2022-08-04T10:11:03.366Z,12.61
2022-08-04T10:12:03.345Z,12.85
2022-08-04T10:13:03.372Z,13.37
2022-08-04T10:14:03.350Z,13
2022-08-04T10:15:03.377Z,13.05
2022-08-04T10:16:03.366Z,12.3
2022-08-04T10:17:03.353Z,12.4
2022-08-04T10:18:03.358Z,12.36
2022-08-04T10:19:07.922Z,12.34
2022-08-04T10:20:03.379Z,12.22
2022-08-04T10:21:10.193Z,12.37
2022-08-04T10:22:28.931Z,12.55
2022-08-04T10:23:11.386Z,12.14
2022-08-04T10:24:03.361Z,12.14
2022-08-04T10:25:03.387Z,12.44
2022-08-04T10:26:08.073Z,12.38
2022-08-04T10:27:03.349Z,12.28
2022-08-04T10:28:03.372Z,12.2
2022-08-04T10:29:03.369Z,12.16
2022-08-04T10:30:03.431Z,12.47
2022-08-04T10:31:03.336Z,12.3
2022-08-04T10:32:03.362Z,12.28
2022-08-04T10:33:03.357Z,12.17
2022-08-04T10:34:03.356Z,12.25
2022-08-04T10:35:03.412Z,12.25
2022-08-04T10:36:03.348Z,12.17
2022-08-04T10:37:03.383Z,12.11
2022-08-04T10:38:03.367Z,12.09
2022-08-04T10:39:03.507Z,12.48
2022-08-04T10:40:03.442Z,12.45
2022-08-04T10:41:03.369Z,12.39
2022-08-04T10:42:03.362Z,12.6
2022-08-04T10:43:03.348Z,12.28
2022-08-04T10:44:03.388Z,12.41
2022-08-04T10:45:03.406Z,12.3
2022-08-04T10:46:03.366Z,12.3
2022-08-04T10:47:03.350Z,12.28
2022-08-04T10:48:03.365Z,12.24
2022-08-04T10:49:03.441Z,12.67
2022-08-04T10:50:03.390Z,12.43
2022-08-04T10:51:03.439Z,12.62
2022-08-04T10:52:03.362Z,12.43
2022-08-04T10:53:03.380Z,12.31
2022-08-04T10:54:03.388Z,12.62
2022-08-04T10:55:03.372Z,12.47
2022-08-04T10:56:06.756Z,12.5
2022-08-04T10:57:03.356Z,12.91
2022-08-04T10:58:03.406Z,12.45
2022-08-04T10:59:03.364Z,12.47
2022-08-04T11:00:04.317Z,12.22
2022-08-04T11:01:03.366Z,12.61
2022-08-04T11:02:03.826Z,12.61
2022-08-04T11:03:03.490Z,12.71
2022-08-04T11:04:03.367Z,12.56
2022-08-04T11:05:03.549Z,12.28
2022-08-04T11:06:03.422Z,12.77
2022-08-04T11:07:03.365Z,12.86
2022-08-04T11:08:04.792Z,12.84
2022-08-04T11:09:03.503Z,12.76
2022-08-04T11:10:03.583Z,12.91
2022-08-04T11:11:03.379Z,12.54
2022-08-04T11:12:03.415Z,12.6
2022-08-04T11:13:03.363Z,12.47
2022-08-04T11:14:03.370Z,12.51
2022-08-04T11:15:03.404Z,12.58
2022-08-04T11:16:03.375Z,12.77
2022-08-04T11:17:03.437Z,12.67
2022-08-04T11:18:03.376Z,12.72
2022-08-04T11:19:03.400Z,12.92
2022-08-04T11:20:32.187Z,12.67
2022-08-04T11:21:03.353Z,13
2022-08-04T11:22:03.406Z,12.82
2022-08-04T11:23:03.379Z,13.26
2022-08-04T11:24:03.430Z,13.19
2022-08-04T11:25:03.396Z,13.33
2022-08-04T11:26:03.414Z,13.12
2022-08-04T11:27:03.374Z,12.94
2022-08-04T11:28:03.377Z,12.73
2022-08-04T11:29:04.526Z,12.37
2022-08-04T11:30:03.412Z,12.6
2022-08-04T11:31:03.393Z,12.41
2022-08-04T11:32:03.402Z,12.01
2022-08-04T11:33:03.409Z,11.56
2022-08-04T11:34:03.382Z,12.03
2022-08-04T11:35:03.401Z,11.76
2022-08-04T11:36:03.379Z,11.76
2022-08-04T11:37:03.374Z,11.21
2022-08-04T11:38:03.455Z,11.13
2022-08-04T11:39:03.481Z,11.23
2022-08-04T11:40:03.431Z,11.5
2022-08-04T11:41:03.478Z,11.4
2022-08-04T11:42:03.376Z,11.44
2022-08-04T11:43:03.410Z,11.48
2022-08-04T11:44:08.015Z,12.12
2022-08-04T11:45:03.492Z,11.87
2022-08-04T11:46:03.387Z,12.01
2022-08-04T11:47:03.441Z,11.97
2022-08-04T11:48:03.391Z,12.05
2022-08-04T11:49:03.397Z,12.35
2022-08-04T11:50:03.407Z,12.09
2022-08-04T11:51:03.385Z,12.39
2022-08-04T11:52:03.396Z,11.91
2022-08-04T11:53:03.703Z,12.1
2022-08-04T11:54:03.410Z,12.01
2022-08-04T11:55:03.455Z,11.85
2022-08-04T11:56:09.238Z,11.81
2022-08-04T11:57:03.395Z,11.79
2022-08-04T11:58:03.395Z,11.67
2022-08-04T11:59:03.388Z,11.85
2022-08-04T12:00:07.648Z,12.62
2022-08-04T12:01:03.424Z,12.14
2022-08-04T12:02:03.414Z,11.91
2022-08-04T12:03:03.386Z,11.71
2022-08-04T12:04:04.457Z,11.91
2022-08-04T12:05:03.411Z,11.76
2022-08-04T12:06:03.416Z,12.14
2022-08-04T12:07:30.082Z,11.63
2022-08-04T12:08:03.459Z,11.58
2022-08-04T12:09:03.405Z,11.55
2022-08-04T12:10:03.401Z,11.76
2022-08-04T12:11:03.393Z,11.87
2022-08-04T12:12:03.388Z,12.03
2022-08-04T12:13:03.413Z,11.81
2022-08-04T12:14:03.391Z,11.91
2022-08-04T12:15:03.447Z,11.7
2022-08-04T12:16:03.399Z,11.68
2022-08-04T12:17:03.391Z,11.76
2022-08-04T12:18:03.648Z,11.62
2022-08-04T12:19:03.422Z,11.58
2022-08-04T12:20:38.342Z,11.6
2022-08-04T12:21:03.425Z,11.63
2022-08-04T12:22:03.467Z,11.68
2022-08-04T12:23:03.400Z,11.59
2022-08-04T12:24:03.386Z,11.39
2022-08-04T12:25:03.413Z,11.36
2022-08-04T12:26:03.404Z,11.47
2022-08-04T12:27:03.411Z,11.37
2022-08-04T12:28:03.515Z,11.54
2022-08-04T12:29:11.548Z,11.59
2022-08-04T12:30:57.179Z,11.58
2022-08-04T12:31:06.247Z,11.63
2022-08-04T12:32:03.401Z,11.38
2022-08-04T12:33:03.401Z,11.7
2022-08-04T12:34:06.318Z,11.57
2022-08-04T12:35:03.424Z,11.6
2022-08-04T12:36:11.159Z,11.45
2022-08-04T12:37:03.401Z,11.66
2022-08-04T12:38:03.397Z,11.63
2022-08-04T12:39:03.495Z,11.58
2022-08-04T12:40:27.309Z,11.73
2022-08-04T12:41:03.468Z,11.88
2022-08-04T12:42:03.404Z,11.99
2022-08-04T12:43:03.449Z,11.82
2022-08-04T12:44:03.390Z,11.88
2022-08-04T12:45:03.713Z,11.91
2022-08-04T12:46:03.625Z,12.02
2022-08-04T12:47:27.096Z,11.91
2022-08-04T12:48:03.748Z,12
2022-08-04T12:49:03.555Z,12
2022-08-04T12:50:03.977Z,12.07
2022-08-04T12:51:03.417Z,12.21
2022-08-04T12:52:06.086Z,12.39
2022-08-04T12:53:04.251Z,12.47
2022-08-04T12:54:03.436Z,12.53
2022-08-04T12:55:03.492Z,12.57